createdAt,value
2022-08-03T00:00:37.457Z,101329.00
2022-08-03T00:03:06.121Z,101332.00
2022-08-03T00:05:35.862Z,101320.00
2022-08-03T00:08:04.463Z,101313.00
2022-08-03T00:10:33.919Z,101313.00
2022-08-03T00:13:02.392Z,101320.00
2022-08-03T00:15:30.783Z,101323.00
2022-08-03T00:17:59.223Z,101275.00
2022-08-03T00:20:27.558Z,101311.00
2022-08-03T00:22:57.484Z,101282.00
2022-08-03T00:25:26.044Z,101305.00
2022-08-03T00:27:54.350Z,101285.00
2022-08-03T00:30:26.924Z,101269.00
2022-08-03T00:32:59.969Z,101280.00
2022-08-03T00:35:36.905Z,101302.00
2022-08-03T00:38:18.890Z,101308.00
2022-08-03T00:40:47.833Z,101285.00
2022-08-03T00:43:16.197Z,101289.00
2022-08-03T00:45:45.050Z,101272.00
2022-08-03T00:48:29.625Z,101286.00
2022-08-03T00:51:01.897Z,101300.00
2022-08-03T00:53:32.656Z,101274.00
2022-08-03T00:56:01.221Z,101258.00
2022-08-03T00:58:29.870Z,101297.00
2022-08-03T01:00:59.022Z,101292.00
2022-08-03T01:03:27.450Z,101272.00
2022-08-03T01:06:09.685Z,101284.00
2022-08-03T01:08:49.983Z,101288.00
2022-08-03T01:11:26.436Z,101287.00
2022-08-03T01:14:19.310Z,101234.00
2022-08-03T01:16:58.432Z,101279.00
2022-08-03T01:19:51.524Z,101273.00
2022-08-03T01:23:08.950Z,101249.00
2022-08-03T01:26:15.480Z,101282.00
2022-08-03T01:29:14.747Z,101276.00
2022-08-03T01:32:59.512Z,101210.00
2022-08-03T01:34:46.635Z,101279.00
2022-08-03T01:37:23.535Z,101276.00
2022-08-03T01:39:56.528Z,101277.00
2022-08-03T01:42:26.815Z,101259.00
2022-08-03T01:44:56.515Z,101257.00
2022-08-03T01:47:29.226Z,101277.00
2022-08-03T01:49:59.080Z,101256.00
2022-08-03T01:52:28.208Z,101270.00
2022-08-03T01:54:58.014Z,101274.00
2022-08-03T01:57:29.399Z,101235.00
2022-08-03T02:00:00.434Z,101271.00
2022-08-03T02:02:34.649Z,101272.00
2022-08-03T02:05:11.013Z,101270.00
2022-08-03T02:07:42.527Z,101267.00
2022-08-03T02:10:14.463Z,101266.00
2022-08-03T02:12:46.089Z,101246.00
2022-08-03T02:15:17.637Z,101245.00
2022-08-03T02:17:48.723Z,101257.00
2022-08-03T02:20:18.688Z,101256.00
2022-08-03T02:22:48.541Z,101262.00
2022-08-03T02:25:17.939Z,101253.00
2022-08-03T02:27:53.845Z,101265.00
2022-08-03T02:30:23.297Z,101267.00
2022-08-03T02:32:57.943Z,101260.00
2022-08-03T02:35:28.334Z,101250.00
2022-08-03T02:38:02.514Z,101260.00
2022-08-03T02:40:33.641Z,101239.00
2022-08-03T02:43:08.087Z,101253.00
2022-08-03T02:45:40.566Z,101254.00
2022-08-03T02:48:17.514Z,101239.00
2022-08-03T02:50:46.641Z,101253.00
2022-08-03T02:53:18.344Z,101251.00
2022-08-03T02:55:50.557Z,101228.00
2022-08-03T02:58:22.235Z,101224.00
2022-08-03T03:00:52.508Z,101245.00
2022-08-03T03:03:23.433Z,101240.00
2022-08-03T03:05:57.839Z,101229.00
2022-08-03T03:08:29.232Z,101236.00
2022-08-03T03:10:59.868Z,101241.00
2022-08-03T03:13:31.869Z,101215.00
2022-08-03T03:16:03.878Z,101212.00
2022-08-03T03:18:36.065Z,101230.00
2022-08-03T03:21:06.385Z,101221.00
2022-08-03T03:23:37.987Z,101239.00
2022-08-03T03:26:07.396Z,101205.00
2022-08-03T03:28:38.077Z,101218.00
2022-08-03T03:31:07.200Z,101253.00
2022-08-03T03:33:38.261Z,101228.00
2022-08-03T03:36:08.719Z,101243.00
2022-08-03T03:38:37.554Z,101227.00
2022-08-03T03:41:06.833Z,101246.00
2022-08-03T03:43:36.296Z,101239.00
2022-08-03T03:46:05.166Z,101241.00
2022-08-03T03:48:33.596Z,101218.00
2022-08-03T03:51:04.656Z,101240.00
2022-08-03T03:53:32.901Z,101224.00
2022-08-03T03:56:02.622Z,101237.00
2022-08-03T03:58:33.379Z,101228.00
2022-08-03T04:01:02.408Z,101246.00
2022-08-03T04:03:30.930Z,101237.00
2022-08-03T04:06:17.106Z,101211.00
2022-08-03T04:09:05.007Z,101231.00
2022-08-03T04:11:39.909Z,101231.00
2022-08-03T04:14:12.706Z,101236.00
2022-08-03T04:16:46.175Z,101218.00
2022-08-03T04:19:23.153Z,101244.00
2022-08-03T04:21:56.932Z,101204.00
2022-08-03T04:24:34.379Z,101241.00
2022-08-03T04:27:06.468Z,101238.00
2022-08-03T04:29:38.608Z,101251.00
2022-08-03T04:32:14.795Z,101246.00
2022-08-03T04:34:43.978Z,101246.00
2022-08-03T04:37:16.181Z,101256.00
2022-08-03T04:39:48.642Z,101251.00
2022-08-03T04:42:18.205Z,101255.00
2022-08-03T04:44:48.540Z,101256.00
2022-08-03T04:47:17.813Z,101245.00
2022-08-03T04:49:46.911Z,101260.00
2022-08-03T04:52:15.570Z,101256.00
2022-08-03T04:54:50.359Z,101255.00
2022-08-03T04:57:22.663Z,101245.00
2022-08-03T05:00:01.683Z,101256.00
2022-08-03T05:02:32.172Z,101267.00
2022-08-03T05:05:01.006Z,101253.00
2022-08-03T05:07:34.152Z,101264.00
2022-08-03T05:10:14.972Z,101268.00
2022-08-03T05:12:46.262Z,101261.00
2022-08-03T05:15:15.043Z,101235.00
2022-08-03T05:17:43.391Z,101276.00
2022-08-03T05:20:13.229Z,101273.00
2022-08-03T05:22:44.841Z,101270.00
2022-08-03T05:25:16.915Z,101269.00
2022-08-03T05:27:47.414Z,101281.00
2022-08-03T05:30:30.589Z,101267.00
2022-08-03T05:33:02.648Z,101279.00
2022-08-03T05:35:57.236Z,101281.00
2022-08-03T05:38:23.797Z,101282.00
2022-08-03T05:41:21.154Z,101284.00
2022-08-03T05:43:46.678Z,101279.00
2022-08-03T05:46:14.923Z,101278.00
2022-08-03T05:48:43.778Z,101282.00
2022-08-03T05:51:12.363Z,101279.00
2022-08-03T05:53:40.890Z,101283.00
2022-08-03T05:56:13.563Z,101281.00
2022-08-03T05:58:44.571Z,101279.00
2022-08-03T06:01:12.868Z,101290.00
2022-08-03T06:03:41.563Z,101285.00
2022-08-03T06:06:09.824Z,101294.00
2022-08-03T06:08:38.282Z,101288.00
2022-08-03T06:11:06.798Z,101284.00
2022-08-03T06:13:37.169Z,101294.00
2022-08-03T06:16:06.131Z,101276.00
2022-08-03T06:18:34.472Z,101287.00
2022-08-03T06:21:14.266Z,101279.00
2022-08-03T06:23:54.791Z,101280.00
2022-08-03T06:26:25.560Z,101277.00
2022-08-03T06:28:56.202Z,101281.00
2022-08-03T06:31:32.240Z,101273.00
2022-08-03T06:34:32.657Z,101276.00
2022-08-03T06:36:51.045Z,101278.00
2022-08-03T06:39:23.640Z,101280.00
2022-08-03T06:41:53.924Z,101273.00
2022-08-03T06:44:23.590Z,101285.00
2022-08-03T06:46:55.954Z,101282.00
2022-08-03T06:49:24.918Z,101288.00
2022-08-03T06:52:03.080Z,101286.00
2022-08-03T06:54:42.166Z,101295.00
2022-08-03T06:57:11.647Z,101295.00
2022-08-03T07:00:06.116Z,101304.00
2022-08-03T07:02:30.002Z,101294.00
2022-08-03T07:04:59.073Z,101299.00
2022-08-03T07:07:27.353Z,101299.00
2022-08-03T07:09:57.757Z,101300.00
2022-08-03T07:12:28.880Z,101303.00
2022-08-03T07:15:01.832Z,101307.00
2022-08-03T07:17:32.790Z,101305.00
2022-08-03T07:20:02.171Z,101305.00
2022-08-03T07:22:30.540Z,101308.00
2022-08-03T07:24:59.288Z,101306.00
2022-08-03T07:27:28.593Z,101306.00
2022-08-03T07:29:58.936Z,101314.00
2022-08-03T07:32:28.452Z,101315.00
2022-08-03T07:35:00.569Z,101314.00
2022-08-03T07:37:30.492Z,101310.00
2022-08-03T07:39:59.379Z,101312.00
2022-08-03T07:42:28.245Z,101316.00
2022-08-03T07:44:58.946Z,101319.00
2022-08-03T07:47:35.075Z,101298.00
2022-08-03T07:50:05.927Z,101315.00
2022-08-03T07:52:50.190Z,101316.00
2022-08-03T07:55:20.963Z,101307.00
2022-08-03T07:57:49.639Z,101314.00
2022-08-03T08:00:20.656Z,101322.00
2022-08-03T08:02:48.912Z,101322.00
2022-08-03T08:05:18.173Z,101320.00
2022-08-03T08:07:51.072Z,101321.00
2022-08-03T08:10:21.080Z,101324.00
2022-08-03T08:12:49.833Z,101323.00
2022-08-03T08:15:19.451Z,101326.00
2022-08-03T08:17:49.258Z,101330.00
2022-08-03T08:20:28.034Z,101322.00
2022-08-03T08:23:01.555Z,101330.00
2022-08-03T08:25:32.209Z,101331.00
2022-08-03T08:28:22.234Z,101330.00
2022-08-03T08:30:52.186Z,101334.00
2022-08-03T08:33:23.018Z,101326.00
2022-08-03T08:35:54.242Z,101331.00
2022-08-03T08:38:23.318Z,101338.00
2022-08-03T08:40:52.135Z,101340.00
2022-08-03T08:43:20.479Z,101340.00
2022-08-03T08:45:53.407Z,101326.00
2022-08-03T08:48:26.988Z,101328.00
2022-08-03T08:50:56.879Z,101323.00
2022-08-03T08:53:28.738Z,101325.00
2022-08-03T08:56:01.444Z,101326.00
2022-08-03T08:58:35.719Z,101324.00
2022-08-03T09:01:05.752Z,101338.00
2022-08-03T09:03:35.164Z,101316.00
2022-08-03T09:06:04.179Z,101338.00
2022-08-03T09:08:33.844Z,101328.00
2022-08-03T09:11:02.166Z,101322.00
2022-08-03T09:13:30.643Z,101320.00
2022-08-03T09:16:14.472Z,101321.00
2022-08-03T09:18:43.915Z,101328.00
2022-08-03T09:21:32.177Z,101324.00
2022-08-03T09:24:05.741Z,101329.00
2022-08-03T09:26:38.035Z,101327.00
2022-08-03T09:29:15.433Z,101330.00
2022-08-03T09:31:47.409Z,101323.00
2022-08-03T09:34:17.763Z,101320.00
2022-08-03T09:36:47.799Z,101323.00
2022-08-03T09:39:17.680Z,101328.00
2022-08-03T09:41:48.769Z,101322.00
2022-08-03T09:44:25.598Z,101319.00
2022-08-03T09:46:57.455Z,101309.00
2022-08-03T09:49:26.074Z,101311.00
2022-08-03T09:52:32.152Z,101316.00
2022-08-03T09:54:44.489Z,101318.00
2022-08-03T09:57:23.776Z,101316.00
2022-08-03T10:00:04.739Z,101325.00
2022-08-03T10:02:38.408Z,101311.00
2022-08-03T10:05:08.320Z,101312.00
2022-08-03T10:07:46.063Z,101310.00
2022-08-03T10:10:29.913Z,101312.00
2022-08-03T10:13:01.431Z,101310.00
2022-08-03T10:16:22.880Z,101311.00
2022-08-03T10:18:19.887Z,101313.00
2022-08-03T10:20:53.306Z,101318.00
2022-08-03T10:23:22.772Z,101315.00
2022-08-03T10:25:59.579Z,101313.00
2022-08-03T10:28:35.955Z,101311.00
2022-08-03T10:31:07.983Z,101309.00
2022-08-03T10:33:50.689Z,101314.00
2022-08-03T10:36:23.672Z,101307.00
2022-08-03T10:38:54.016Z,101307.00
2022-08-03T10:41:24.634Z,101308.00
2022-08-03T10:43:57.853Z,101307.00
2022-08-03T10:46:28.395Z,101309.00
2022-08-03T10:48:58.695Z,101311.00
2022-08-03T10:51:32.036Z,101309.00
2022-08-03T10:54:01.786Z,101306.00
2022-08-03T10:57:13.663Z,101307.00
2022-08-03T11:00:05.103Z,101304.00
2022-08-03T11:03:09.964Z,101304.00
2022-08-03T11:05:42.933Z,101291.00
2022-08-03T11:08:32.343Z,101298.00
2022-08-03T11:11:04.357Z,101294.00
2022-08-03T11:13:33.997Z,101293.00
2022-08-03T11:16:21.881Z,101292.00
2022-08-03T11:18:59.194Z,101296.00
2022-08-03T11:22:00.428Z,101296.00
2022-08-03T11:25:01.866Z,101289.00
2022-08-03T11:27:34.759Z,101301.00
2022-08-03T11:30:07.547Z,101294.00
2022-08-03T11:33:09.216Z,101288.00
2022-08-03T11:36:01.288Z,101286.00
2022-08-03T11:38:30.928Z,101278.00
2022-08-03T11:40:59.741Z,101278.00
2022-08-03T11:43:47.161Z,101280.00
2022-08-03T11:46:28.618Z,101286.00
2022-08-03T11:49:10.260Z,101293.00
2022-08-03T11:51:40.344Z,101291.00
2022-08-03T11:54:11.367Z,101287.00
2022-08-03T11:56:47.486Z,101290.00
2022-08-03T11:59:20.664Z,101283.00
2022-08-03T12:01:50.241Z,101285.00
2022-08-03T12:04:18.463Z,101284.00
2022-08-03T12:07:00.521Z,101287.00
2022-08-03T12:09:30.272Z,101279.00
2022-08-03T12:12:00.603Z,101288.00
2022-08-03T12:14:48.455Z,101273.00
2022-08-03T12:17:19.063Z,101274.00
2022-08-03T12:19:47.746Z,101271.00
2022-08-03T12:22:17.123Z,101275.00
2022-08-03T12:24:47.619Z,101274.00
2022-08-03T12:27:25.879Z,101274.00
2022-08-03T12:29:58.226Z,101269.00
2022-08-03T12:32:28.300Z,101269.00
2022-08-03T12:35:00.818Z,101276.00
2022-08-03T12:37:30.503Z,101278.00
2022-08-03T12:40:09.984Z,101276.00
2022-08-03T12:42:40.878Z,101273.00
2022-08-03T12:45:23.691Z,101272.00
2022-08-03T12:47:54.665Z,101261.00
2022-08-03T12:50:31.447Z,101277.00
2022-08-03T12:53:01.407Z,101271.00
2022-08-03T12:55:56.388Z,101278.00
2022-08-03T12:58:35.165Z,101279.00
2022-08-03T13:01:09.123Z,101278.00
2022-08-03T13:03:45.633Z,101271.00
2022-08-03T13:06:15.182Z,101278.00
2022-08-03T13:08:44.334Z,101276.00
2022-08-03T13:11:58.255Z,101282.00
2022-08-03T13:14:19.646Z,101279.00
2022-08-03T13:16:49.637Z,101281.00
2022-08-03T13:19:18.035Z,101274.00
2022-08-03T13:22:03.138Z,101278.00
2022-08-03T13:24:34.153Z,101283.00
2022-08-03T13:28:00.017Z,101283.00
2022-08-03T13:29:53.948Z,101278.00
2022-08-03T13:32:23.481Z,101282.00
2022-08-03T13:34:52.423Z,101278.00
2022-08-03T13:37:20.894Z,101278.00
2022-08-03T13:39:58.914Z,101273.00
2022-08-03T13:42:31.374Z,101280.00
2022-08-03T13:45:00.368Z,101270.00
2022-08-03T13:47:29.396Z,101268.00
2022-08-03T13:50:01.424Z,101277.00
2022-08-03T13:52:32.554Z,101267.00
2022-08-03T13:55:01.196Z,101276.00
2022-08-03T13:58:06.378Z,101275.00
2022-08-03T14:00:27.820Z,101277.00
2022-08-03T14:03:17.374Z,101266.00
2022-08-03T14:05:45.894Z,101270.00
2022-08-03T14:08:14.261Z,101261.00
2022-08-03T14:10:45.885Z,101273.00
2022-08-03T14:13:16.757Z,101269.00
2022-08-03T14:15:49.765Z,101269.00
2022-08-03T14:18:28.535Z,101269.00
2022-08-03T14:21:06.641Z,101265.00
2022-08-03T14:23:36.169Z,101268.00
2022-08-03T14:26:04.851Z,101277.00
2022-08-03T14:28:34.859Z,101272.00
2022-08-03T14:31:04.122Z,101263.00
2022-08-03T14:33:36.945Z,101276.00
2022-08-03T14:36:06.353Z,101264.00
2022-08-03T14:38:34.698Z,101268.00
2022-08-03T14:41:02.945Z,101272.00
2022-08-03T14:43:34.130Z,101275.00
2022-08-03T14:46:04.020Z,101271.00
2022-08-03T14:50:34.122Z,101268.00
2022-08-03T14:51:20.547Z,101270.00
2022-08-03T14:53:48.739Z,101272.00
2022-08-03T14:56:17.034Z,101268.00
2022-08-03T14:58:45.259Z,101260.00
2022-08-03T15:02:04.648Z,101277.00
2022-08-03T15:04:03.010Z,101259.00
2022-08-03T15:06:31.207Z,101265.00
2022-08-03T15:09:21.514Z,101260.00
2022-08-03T15:11:47.674Z,101253.00
2022-08-03T15:14:15.947Z,101260.00
2022-08-03T15:16:45.495Z,101253.00
2022-08-03T15:20:00.381Z,101242.00
2022-08-03T15:22:01.892Z,101253.00
2022-08-03T15:24:30.503Z,101241.00
2022-08-03T15:26:59.166Z,101249.00
2022-08-03T15:30:06.873Z,101248.00
2022-08-03T15:32:17.178Z,101245.00
2022-08-03T15:34:50.468Z,101249.00
2022-08-03T15:37:20.702Z,101245.00
2022-08-03T15:39:58.127Z,101246.00
2022-08-03T15:42:29.543Z,101249.00
2022-08-03T15:44:58.123Z,101249.00
2022-08-03T15:47:27.857Z,101229.00
2022-08-03T15:49:56.204Z,101246.00
2022-08-03T15:52:25.569Z,101244.00
2022-08-03T15:54:53.819Z,101243.00
2022-08-03T15:57:22.655Z,101246.00
2022-08-03T15:59:51.814Z,101247.00
2022-08-03T16:02:20.037Z,101249.00
2022-08-03T16:04:49.749Z,101249.00
2022-08-03T16:07:37.944Z,101249.00
2022-08-03T16:10:07.323Z,101254.00
2022-08-03T16:12:35.563Z,101257.00
2022-08-03T16:15:04.109Z,101253.00
2022-08-03T16:17:32.788Z,101257.00
2022-08-03T16:20:07.437Z,101253.00
2022-08-03T16:22:44.626Z,101256.00
2022-08-03T16:25:16.375Z,101259.00
2022-08-03T16:28:03.117Z,101246.00
2022-08-03T16:30:33.242Z,101256.00
2022-08-03T16:33:01.485Z,101261.00
2022-08-03T16:35:31.562Z,101249.00
2022-08-03T16:37:59.838Z,101261.00
2022-08-03T16:40:28.523Z,101261.00
2022-08-03T16:42:56.720Z,101258.00
2022-08-03T16:45:25.306Z,101252.00
2022-08-03T16:48:01.474Z,101240.00
2022-08-03T16:50:36.403Z,101250.00
2022-08-03T16:53:09.171Z,101259.00
2022-08-03T16:55:48.885Z,101258.00
2022-08-03T16:58:34.549Z,101259.00
2022-08-03T17:01:24.015Z,101250.00
2022-08-03T17:04:02.377Z,101252.00
2022-08-03T17:07:00.195Z,101252.00
2022-08-03T17:09:38.177Z,101250.00
2022-08-03T17:12:14.569Z,101257.00
2022-08-03T17:14:44.545Z,101254.00
2022-08-03T17:17:22.823Z,101252.00
2022-08-03T17:19:54.285Z,101259.00
2022-08-03T17:22:58.783Z,101251.00
2022-08-03T17:25:51.362Z,101253.00
2022-08-03T17:28:48.843Z,101251.00
2022-08-03T17:31:23.107Z,101251.00
2022-08-03T17:34:04.261Z,101263.00
2022-08-03T17:37:05.580Z,101268.00
2022-08-03T17:39:59.247Z,101266.00
2022-08-03T17:42:33.064Z,101263.00
2022-08-03T17:45:06.752Z,101263.00
2022-08-03T17:47:41.906Z,101270.00
2022-08-03T17:50:24.607Z,101256.00
2022-08-03T17:53:07.249Z,101270.00
2022-08-03T17:55:57.228Z,101274.00
2022-08-03T18:04:55.262Z,101283.00
2022-08-03T18:07:41.190Z,101274.00
2022-08-03T18:10:15.149Z,101273.00
2022-08-03T18:12:53.884Z,101281.00
2022-08-03T18:15:30.355Z,101279.00
2022-08-03T18:18:10.457Z,101271.00
2022-08-03T18:20:42.008Z,101271.00
2022-08-03T18:23:24.755Z,101276.00
2022-08-03T18:26:02.283Z,101276.00
2022-08-03T18:28:36.425Z,101276.00
2022-08-03T18:31:06.038Z,101278.00
2022-08-03T18:34:16.918Z,101270.00
2022-08-03T18:36:29.914Z,101283.00
2022-08-03T18:39:02.502Z,101281.00
2022-08-03T18:41:34.629Z,101277.00
2022-08-03T18:44:06.910Z,101287.00
2022-08-03T18:46:49.139Z,101284.00
2022-08-03T18:49:30.328Z,101279.00
2022-08-03T18:52:27.002Z,101283.00
2022-08-03T18:55:19.726Z,101282.00
2022-08-03T18:57:53.976Z,101268.00
2022-08-03T19:00:42.376Z,101274.00
2022-08-03T19:03:20.549Z,101279.00
2022-08-03T19:06:03.030Z,101272.00
2022-08-03T19:08:44.574Z,101266.00
2022-08-03T19:11:20.643Z,101271.00
2022-08-03T19:13:59.472Z,101270.00
2022-08-03T19:16:36.088Z,101280.00
2022-08-03T19:19:14.638Z,101278.00
2022-08-03T19:21:43.147Z,101252.00
2022-08-03T19:24:14.142Z,101279.00
2022-08-03T19:26:43.965Z,101287.00
2022-08-03T19:29:17.995Z,101269.00
2022-08-03T19:31:59.331Z,101278.00
2022-08-03T19:34:30.324Z,101280.00
2022-08-03T19:37:02.388Z,101282.00
2022-08-03T19:39:31.750Z,101280.00
2022-08-03T19:42:20.130Z,101285.00
2022-08-03T19:44:56.942Z,101290.00
2022-08-03T19:47:35.098Z,101290.00
2022-08-03T19:50:10.433Z,101291.00
2022-08-03T19:52:43.898Z,101293.00
2022-08-03T19:55:12.847Z,101277.00
2022-08-03T19:57:49.199Z,101286.00
2022-08-03T20:00:26.561Z,101270.00
2022-08-03T20:03:00.638Z,101278.00
2022-08-03T20:05:29.731Z,101280.00
2022-08-03T20:08:13.843Z,101280.00
2022-08-03T20:10:42.021Z,101278.00
2022-08-03T20:13:14.429Z,101275.00
2022-08-03T20:15:48.018Z,101278.00
2022-08-03T20:18:23.060Z,101278.00
2022-08-03T20:20:55.745Z,101255.00
2022-08-03T20:23:25.542Z,101268.00
2022-08-03T20:26:06.046Z,101271.00
2022-08-03T20:28:50.694Z,101276.00
2022-08-03T20:31:23.950Z,101269.00
2022-08-03T20:34:02.196Z,101267.00
2022-08-03T20:36:30.419Z,101267.00
2022-08-03T20:38:58.703Z,101275.00
2022-08-03T20:41:28.147Z,101268.00
2022-08-03T20:44:00.848Z,101280.00
2022-08-03T20:46:41.409Z,101275.00
2022-08-03T20:49:22.952Z,101276.00
2022-08-03T20:51:53.769Z,101270.00
2022-08-03T20:54:31.242Z,101268.00
2022-08-03T20:57:04.478Z,101267.00
2022-08-03T20:59:50.501Z,101255.00
2022-08-03T21:02:29.926Z,101255.00
2022-08-03T21:05:03.209Z,101260.00
2022-08-03T21:08:03.805Z,101255.00
2022-08-03T21:10:32.072Z,101263.00
2022-08-03T21:12:56.257Z,101279.00
2022-08-03T21:13:04.018Z,101275.00
2022-08-03T21:13:15.925Z,101257.00
2022-08-03T21:16:03.261Z,101254.00
2022-08-03T21:18:46.654Z,101252.00
2022-08-03T21:21:19.656Z,101255.00
2022-08-03T21:23:53.604Z,101253.00
2022-08-03T21:26:25.490Z,101237.00
2022-08-03T21:28:57.731Z,101239.00
2022-08-03T21:31:27.088Z,101234.00
2022-08-03T21:33:57.895Z,101242.00
2022-08-03T21:36:30.876Z,101241.00
2022-08-03T21:38:59.904Z,101230.00
2022-08-03T21:41:30.839Z,101235.00
2022-08-03T21:43:59.267Z,101237.00
2022-08-03T21:46:31.272Z,101227.00
2022-08-03T21:50:04.302Z,101227.00
2022-08-03T21:51:55.428Z,101231.00
2022-08-03T21:54:28.552Z,101228.00
2022-08-03T21:57:02.612Z,101209.00
2022-08-03T21:59:35.937Z,101223.00
2022-08-03T22:02:04.877Z,101224.00
2022-08-03T22:04:55.753Z,101223.00
2022-08-03T22:07:29.182Z,101198.00
2022-08-03T22:10:00.543Z,101207.00
2022-08-03T22:12:31.971Z,101210.00
2022-08-03T22:15:02.520Z,101210.00
2022-08-03T22:17:55.191Z,101201.00
2022-08-03T22:20:22.026Z,101206.00
2022-08-03T22:22:57.024Z,101211.00
2022-08-03T22:25:30.620Z,101203.00
2022-08-03T22:28:01.186Z,101207.00
2022-08-03T22:30:29.945Z,101198.00
2022-08-03T22:32:59.586Z,101205.00
2022-08-03T22:35:28.667Z,101196.00
2022-08-03T22:38:00.460Z,101198.00
2022-08-03T22:40:29.305Z,101200.00
2022-08-03T22:42:58.391Z,101185.00
2022-08-03T22:46:06.910Z,101200.00
2022-08-03T22:48:17.833Z,101208.00
2022-08-03T22:50:47.118Z,101210.00
2022-08-03T22:53:22.870Z,101199.00
2022-08-03T22:55:52.441Z,101202.00
2022-08-03T22:58:21.797Z,101201.00
2022-08-03T23:00:54.971Z,101218.00
2022-08-03T23:04:00.382Z,101205.00
2022-08-03T23:06:17.650Z,101215.00
2022-08-03T23:08:48.853Z,101198.00
2022-08-03T23:11:19.983Z,101199.00
2022-08-03T23:13:52.646Z,101212.00
2022-08-03T23:16:28.644Z,101206.00
2022-08-03T23:18:59.418Z,101207.00
2022-08-03T23:22:00.105Z,101191.00
2022-08-03T23:24:28.505Z,101190.00
2022-08-03T23:26:59.062Z,101183.00
2022-08-03T23:29:30.362Z,101192.00
2022-08-03T23:32:00.393Z,101199.00
2022-08-03T23:34:47.651Z,101195.00
2022-08-03T23:37:16.293Z,101191.00
2022-08-03T23:39:48.525Z,101193.00
2022-08-03T23:42:19.401Z,101191.00
2022-08-03T23:44:48.834Z,101190.00
2022-08-03T23:47:17.144Z,101176.00
2022-08-03T23:49:45.750Z,101194.00
2022-08-03T23:52:28.210Z,101190.00
2022-08-03T23:55:14.717Z,101183.00
2022-08-03T23:57:58.945Z,101186.00
